createdAt,value
2018-07-15T00:00:02.616Z,24.05
2018-07-15T00:02:31.873Z,24.07
2018-07-15T00:05:01.012Z,24.07
2018-07-15T00:07:29.959Z,24.05
2018-07-15T00:09:58.842Z,23.99
2018-07-15T00:12:27.966Z,23.98
2018-07-15T00:14:57.006Z,23.98
2018-07-15T00:17:26.098Z,24.00
2018-07-15T00:19:55.193Z,24.02
2018-07-15T00:22:24.341Z,24.02
2018-07-15T00:24:53.229Z,24.01
2018-07-15T00:27:22.422Z,23.97
2018-07-15T00:29:51.758Z,23.92
2018-07-15T00:32:20.994Z,23.87
2018-07-15T00:34:50.219Z,23.86
2018-07-15T00:37:19.354Z,23.88
2018-07-15T00:39:48.550Z,23.91
2018-07-15T00:42:17.712Z,23.89
2018-07-15T00:44:46.407Z,23.91
2018-07-15T00:47:15.550Z,23.87
2018-07-15T00:49:44.686Z,23.92
2018-07-15T00:52:13.498Z,23.92
2018-07-15T00:54:42.510Z,23.96
2018-07-15T00:57:11.363Z,23.95
2018-07-15T00:59:40.490Z,23.98
2018-07-15T01:02:09.848Z,23.97
2018-07-15T01:04:38.889Z,23.90
2018-07-15T01:07:08.230Z,23.80
2018-07-15T01:09:37.530Z,23.75
2018-07-15T01:12:06.635Z,23.71
2018-07-15T01:14:35.438Z,23.64
2018-07-15T01:17:04.502Z,23.58
2018-07-15T01:19:33.665Z,23.56
2018-07-15T01:22:02.850Z,23.55
2018-07-15T01:24:32.033Z,23.56
2018-07-15T01:27:01.043Z,23.56
2018-07-15T01:29:30.155Z,23.58
2018-07-15T01:31:59.280Z,23.62
2018-07-15T01:34:28.376Z,23.60
2018-07-15T01:36:58.402Z,23.62
2018-07-15T01:39:27.390Z,23.60
2018-07-15T01:41:56.615Z,23.57
2018-07-15T01:44:25.750Z,23.59
2018-07-15T01:46:54.563Z,23.64
2018-07-15T01:49:23.398Z,23.61
2018-07-15T01:51:52.245Z,23.57
2018-07-15T01:54:21.362Z,23.55
2018-07-15T01:56:50.646Z,23.49
2018-07-15T01:59:19.790Z,23.49
2018-07-15T02:01:49.022Z,23.52
2018-07-15T02:04:17.948Z,23.50
2018-07-15T02:06:46.696Z,23.51
2018-07-15T02:09:15.914Z,23.46
2018-07-15T02:11:44.966Z,23.39
2018-07-15T02:14:14.063Z,23.31
2018-07-15T02:16:43.253Z,23.33
2018-07-15T02:19:12.399Z,23.46
2018-07-15T02:21:41.356Z,23.45
2018-07-15T02:24:10.308Z,23.39
2018-07-15T02:26:39.396Z,23.36
2018-07-15T02:29:08.702Z,23.34
2018-07-15T02:31:37.807Z,23.34
2018-07-15T02:34:08.678Z,23.29
2018-07-15T02:36:37.682Z,23.26
2018-07-15T02:39:08.647Z,23.22
2018-07-15T02:41:37.746Z,23.24
2018-07-15T02:44:07.492Z,23.23
2018-07-15T02:46:36.522Z,23.27
2018-07-15T02:49:05.580Z,23.25
2018-07-15T02:51:34.945Z,23.18
2018-07-15T02:54:04.183Z,23.23
2018-07-15T02:56:33.108Z,23.23
2018-07-15T02:59:02.231Z,23.25
2018-07-15T03:01:31.382Z,23.24
2018-07-15T03:04:00.194Z,23.25
2018-07-15T03:06:29.171Z,23.22
2018-07-15T03:08:58.459Z,23.27
2018-07-15T03:11:27.674Z,23.18
2018-07-15T03:13:56.874Z,23.03
2018-07-15T03:16:25.998Z,22.92
2018-07-15T03:18:55.243Z,22.89
2018-07-15T03:21:24.498Z,22.91
2018-07-15T03:23:53.634Z,22.89
2018-07-15T03:26:22.887Z,22.75
2018-07-15T03:28:51.826Z,22.74
2018-07-15T03:31:20.818Z,22.74
2018-07-15T03:33:50.114Z,22.71
2018-07-15T03:36:19.156Z,22.62
2018-07-15T03:38:48.300Z,22.77
2018-07-15T03:41:17.489Z,22.85
2018-07-15T03:43:46.767Z,22.86
2018-07-15T03:46:16.111Z,22.90
2018-07-15T03:48:45.151Z,22.91
2018-07-15T03:51:14.454Z,22.97
2018-07-15T03:53:43.575Z,23.03
2018-07-15T03:56:12.414Z,23.05
2018-07-15T03:58:41.623Z,23.02
2018-07-15T04:01:10.667Z,23.07
2018-07-15T04:03:39.838Z,23.08
2018-07-15T04:06:08.751Z,23.21
2018-07-15T04:08:37.804Z,23.22
2018-07-15T04:11:07.019Z,23.07
2018-07-15T04:13:36.066Z,22.90
2018-07-15T04:16:05.335Z,22.88
2018-07-15T04:18:34.302Z,22.96
2018-07-15T04:21:03.422Z,23.16
2018-07-15T04:23:32.562Z,23.27
2018-07-15T04:26:01.671Z,23.32
2018-07-15T04:28:30.949Z,23.36
2018-07-15T04:30:59.894Z,23.41
2018-07-15T04:33:29.042Z,23.44
2018-07-15T04:35:58.179Z,23.50
2018-07-15T04:38:27.438Z,23.53
2018-07-15T04:40:56.484Z,23.57
2018-07-15T04:43:25.616Z,23.69
2018-07-15T04:45:54.502Z,23.66
2018-07-15T04:48:23.618Z,23.73
2018-07-15T04:50:52.590Z,23.74
2018-07-15T04:53:21.638Z,23.66
2018-07-15T04:55:50.543Z,23.64
2018-07-15T04:58:19.702Z,23.57
2018-07-15T05:00:48.831Z,23.53
2018-07-15T05:03:17.974Z,23.51
2018-07-15T05:05:47.180Z,23.48
2018-07-15T05:08:16.158Z,23.54
2018-07-15T05:10:45.522Z,23.65
2018-07-15T05:13:14.647Z,23.69
2018-07-15T05:15:43.722Z,23.73
2018-07-15T05:18:13.066Z,23.78
2018-07-15T05:20:42.200Z,23.82
2018-07-15T05:23:11.018Z,23.86
2018-07-15T05:25:39.996Z,23.94
2018-07-15T05:28:08.950Z,24.00
2018-07-15T05:30:38.069Z,24.07
2018-07-15T05:33:07.340Z,24.17
2018-07-15T05:35:36.503Z,24.29
2018-07-15T05:38:05.649Z,24.32
2018-07-15T05:40:34.481Z,24.39
2018-07-15T05:43:03.520Z,24.49
2018-07-15T05:45:32.757Z,24.59
2018-07-15T05:48:01.810Z,24.59
2018-07-15T05:50:30.898Z,24.62
2018-07-15T05:52:59.685Z,24.58
2018-07-15T05:55:28.841Z,24.65
2018-07-15T05:57:57.966Z,24.70
2018-07-15T06:00:26.974Z,24.75
2018-07-15T06:02:56.331Z,24.86
2018-07-15T06:05:25.681Z,24.82
2018-07-15T06:07:54.858Z,24.79
2018-07-15T06:10:23.722Z,24.75
2018-07-15T06:12:52.802Z,24.77
2018-07-15T06:15:21.822Z,24.78
2018-07-15T06:17:50.997Z,24.82
2018-07-15T06:20:19.979Z,24.88
2018-07-15T06:22:49.343Z,25.00
2018-07-15T06:25:18.507Z,25.14
2018-07-15T06:27:47.627Z,25.23
2018-07-15T06:30:16.767Z,25.45
2018-07-15T06:32:45.623Z,25.51
2018-07-15T06:35:14.519Z,25.62
2018-07-15T06:37:43.628Z,25.62
2018-07-15T06:40:12.830Z,25.73
2018-07-15T06:42:42.030Z,25.78
2018-07-15T06:45:11.119Z,25.90
2018-07-15T06:47:40.283Z,25.91
2018-07-15T06:50:09.292Z,25.93
2018-07-15T06:52:38.360Z,26.02
2018-07-15T06:55:07.489Z,26.10
2018-07-15T06:57:36.397Z,26.16
2018-07-15T07:00:05.535Z,26.22
2018-07-15T07:02:34.319Z,26.21
2018-07-15T07:05:03.441Z,26.24
2018-07-15T07:07:32.431Z,26.26
2018-07-15T07:10:01.614Z,26.36
2018-07-15T07:12:30.752Z,26.52
2018-07-15T07:14:59.902Z,26.66
2018-07-15T07:17:28.711Z,26.77
2018-07-15T07:19:57.730Z,26.89
2018-07-15T07:22:27.043Z,27.05
2018-07-15T07:24:56.030Z,27.07
2018-07-15T07:27:25.394Z,27.10
2018-07-15T07:29:54.658Z,27.15
2018-07-15T07:32:23.675Z,27.12
2018-07-15T07:34:52.702Z,27.16
2018-07-15T07:37:21.950Z,27.16
2018-07-15T07:39:50.988Z,27.16
2018-07-15T07:42:19.872Z,27.16
2018-07-15T07:44:49.036Z,27.28
2018-07-15T07:47:18.163Z,27.39
2018-07-15T07:49:47.281Z,27.45
2018-07-15T07:52:16.363Z,27.52
2018-07-15T07:54:45.647Z,27.58
2018-07-15T07:57:14.451Z,27.64
2018-07-15T07:59:43.367Z,27.69
2018-07-15T08:02:12.151Z,27.63
2018-07-15T08:04:41.265Z,27.67
2018-07-15T08:07:10.528Z,27.74
2018-07-15T08:09:39.367Z,27.74
2018-07-15T08:12:08.619Z,27.62
2018-07-15T08:14:37.958Z,27.61
2018-07-15T08:17:07.030Z,27.69
2018-07-15T08:19:36.265Z,27.82
2018-07-15T08:22:05.327Z,27.91
2018-07-15T08:24:34.195Z,28.05
2018-07-15T08:27:03.407Z,28.13
2018-07-15T08:29:32.436Z,28.09
2018-07-15T08:32:01.570Z,28.16
2018-07-15T08:34:30.499Z,28.34
2018-07-15T08:36:59.435Z,28.47
2018-07-15T08:39:28.691Z,28.49
2018-07-15T08:41:57.748Z,28.53
2018-07-15T08:44:27.073Z,28.63
2018-07-15T08:46:56.304Z,28.69
2018-07-15T08:49:25.470Z,28.74
2018-07-15T08:51:54.558Z,28.80
2018-07-15T08:54:23.599Z,28.87
2018-07-15T08:56:52.724Z,28.91
2018-07-15T08:59:21.899Z,28.89
2018-07-15T09:01:50.795Z,28.93
2018-07-15T09:04:19.706Z,28.96
2018-07-15T09:06:48.802Z,29.05
2018-07-15T09:09:17.914Z,29.14
2018-07-15T09:11:46.890Z,29.10
2018-07-15T09:14:16.054Z,29.15
2018-07-15T09:16:45.214Z,29.20
2018-07-15T09:19:14.257Z,29.19
2018-07-15T09:21:43.339Z,29.26
2018-07-15T09:24:12.290Z,29.28
2018-07-15T09:26:41.286Z,29.28
2018-07-15T09:29:10.360Z,29.36
2018-07-15T09:31:39.355Z,29.54
2018-07-15T09:34:08.262Z,29.87
2018-07-15T09:36:37.388Z,30.19
2018-07-15T09:39:07.387Z,30.38
2018-07-15T09:41:36.199Z,30.45
2018-07-15T09:44:05.340Z,30.77
2018-07-15T09:46:34.487Z,31.20
2018-07-15T09:49:03.387Z,31.47
2018-07-15T09:51:32.682Z,32.19
2018-07-15T09:54:01.978Z,32.86
2018-07-15T09:56:31.277Z,33.18
2018-07-15T09:59:01.029Z,34.04
2018-07-15T10:01:29.879Z,35.32
2018-07-15T10:04:00.194Z,36.29
2018-07-15T10:06:29.274Z,37.11
2018-07-15T10:08:58.064Z,38.12
2018-07-15T10:11:27.169Z,39.37
2018-07-15T10:13:56.459Z,39.45
2018-07-15T10:16:25.791Z,37.76
2018-07-15T10:18:54.805Z,37.72
2018-07-15T10:21:23.962Z,38.39
2018-07-15T10:23:53.182Z,39.22
2018-07-15T10:26:22.283Z,39.69
2018-07-15T10:28:51.577Z,39.86
2018-07-15T10:31:20.736Z,40.48
2018-07-15T10:33:49.945Z,40.92
2018-07-15T10:36:18.746Z,41.62
2018-07-15T10:38:47.651Z,41.80
2018-07-15T10:41:16.424Z,40.60
2018-07-15T10:43:45.647Z,39.36
2018-07-15T10:46:14.714Z,37.96
2018-07-15T10:48:43.885Z,38.26
2018-07-15T10:51:12.764Z,39.02
2018-07-15T10:53:41.735Z,39.47
2018-07-15T10:56:10.810Z,39.61
2018-07-15T10:58:39.931Z,39.99
2018-07-15T11:01:08.903Z,40.51
2018-07-15T11:03:38.191Z,40.82
2018-07-15T11:06:07.268Z,41.24
2018-07-15T11:08:36.712Z,40.64
2018-07-15T11:11:05.774Z,40.05
2018-07-15T11:13:34.984Z,40.20
2018-07-15T11:16:03.890Z,40.11
2018-07-15T11:18:33.010Z,40.32
2018-07-15T11:21:01.918Z,40.30
2018-07-15T11:23:31.194Z,40.45
2018-07-15T11:26:00.001Z,39.97
2018-07-15T11:28:28.812Z,39.71
2018-07-15T11:30:58.019Z,39.08
2018-07-15T11:33:27.226Z,37.17
2018-07-15T11:35:56.311Z,36.66
2018-07-15T11:38:25.458Z,37.36
2018-07-15T11:40:54.260Z,37.85
2018-07-15T11:43:23.459Z,38.10
2018-07-15T11:45:52.690Z,39.32
2018-07-15T11:48:21.881Z,39.90
2018-07-15T11:50:50.942Z,40.44
2018-07-15T11:53:20.130Z,41.31
2018-07-15T11:55:49.405Z,41.84
2018-07-15T11:58:18.287Z,41.12
2018-07-15T12:00:47.232Z,41.60
2018-07-15T12:03:16.469Z,42.53
2018-07-15T12:05:45.351Z,42.52
2018-07-15T12:08:14.641Z,41.87
2018-07-15T12:10:44.006Z,41.89
2018-07-15T12:13:14.070Z,42.20
2018-07-15T12:15:43.435Z,42.39
2018-07-15T12:18:12.402Z,42.69
2018-07-15T12:20:41.638Z,42.93
2018-07-15T12:23:10.796Z,43.01
2018-07-15T12:25:40.034Z,43.24
2018-07-15T12:28:09.211Z,43.39
2018-07-15T12:30:38.139Z,43.93
2018-07-15T12:33:07.472Z,44.79
2018-07-15T12:35:36.623Z,44.41
2018-07-15T12:38:05.448Z,44.05
2018-07-15T12:40:34.644Z,43.37
2018-07-15T12:43:03.760Z,43.71
2018-07-15T12:45:33.083Z,43.94
2018-07-15T12:48:02.236Z,43.96
2018-07-15T12:50:31.047Z,44.00
2018-07-15T12:53:00.028Z,44.29
2018-07-15T12:55:28.967Z,44.06
2018-07-15T12:57:58.242Z,44.28
2018-07-15T13:00:27.168Z,44.31
2018-07-15T13:02:55.913Z,43.79
2018-07-15T13:05:25.178Z,41.93
2018-07-15T13:07:54.297Z,41.96
2018-07-15T13:10:23.219Z,41.57
2018-07-15T13:12:52.366Z,42.15
2018-07-15T13:15:21.322Z,42.78
2018-07-15T13:17:50.559Z,42.82
2018-07-15T13:20:19.886Z,41.66
2018-07-15T13:22:49.161Z,40.80
2018-07-15T13:25:18.388Z,40.82
2018-07-15T13:27:47.555Z,40.17
2018-07-15T13:30:16.898Z,40.31
2018-07-15T13:32:46.154Z,40.83
2018-07-15T13:35:15.447Z,41.01
2018-07-15T13:37:44.531Z,41.42
2018-07-15T13:40:13.534Z,41.50
2018-07-15T13:42:42.830Z,41.54
2018-07-15T13:45:12.721Z,41.60
2018-07-15T13:47:42.324Z,41.41
2018-07-15T13:50:11.590Z,41.41
2018-07-15T13:52:40.817Z,41.76
2018-07-15T13:55:09.974Z,41.29
2018-07-15T13:57:39.230Z,40.74
2018-07-15T14:00:08.805Z,40.55
2018-07-15T14:02:38.084Z,40.71
2018-07-15T14:05:07.643Z,41.05
2018-07-15T14:07:37.924Z,41.15
2018-07-15T14:10:06.783Z,40.44
2018-07-15T14:12:37.330Z,39.72
2018-07-15T14:15:10.880Z,38.97
2018-07-15T14:17:40.166Z,38.19
2018-07-15T14:20:09.309Z,37.53
2018-07-15T14:22:38.216Z,37.00
2018-07-15T14:25:07.344Z,36.62
2018-07-15T14:27:36.301Z,36.20
2018-07-15T14:30:05.632Z,35.90
2018-07-15T14:32:34.942Z,35.72
2018-07-15T14:35:04.114Z,35.56
2018-07-15T14:37:32.840Z,35.35
2018-07-15T14:40:01.638Z,35.17
2018-07-15T14:42:30.858Z,34.95
2018-07-15T14:44:59.754Z,34.74
2018-07-15T14:47:29.085Z,34.59
2018-07-15T14:49:58.281Z,34.47
2018-07-15T14:52:27.662Z,34.29
2018-07-15T14:54:56.472Z,34.18
2018-07-15T14:57:25.674Z,33.94
2018-07-15T14:59:54.903Z,33.57
2018-07-15T15:02:24.168Z,33.54
2018-07-15T15:04:53.346Z,33.49
2018-07-15T15:07:22.353Z,33.52
2018-07-15T15:09:51.103Z,33.37
2018-07-15T15:12:19.986Z,33.21
2018-07-15T15:14:49.156Z,33.08
2018-07-15T15:17:18.479Z,32.96
2018-07-15T15:19:47.720Z,32.77
2018-07-15T15:22:16.854Z,32.62
2018-07-15T15:24:46.104Z,32.57
2018-07-15T15:27:15.455Z,32.48
2018-07-15T15:29:44.345Z,32.41
2018-07-15T15:32:13.430Z,32.39
2018-07-15T15:34:42.613Z,32.33
2018-07-15T15:37:11.663Z,32.37
2018-07-15T15:39:40.897Z,32.27
2018-07-15T15:42:09.941Z,32.32
2018-07-15T15:44:39.027Z,32.29
2018-07-15T15:47:08.176Z,32.27
2018-07-15T15:49:37.383Z,32.20
2018-07-15T15:52:06.598Z,32.07
2018-07-15T15:54:35.882Z,32.06
2018-07-15T15:57:05.085Z,32.00
2018-07-15T15:59:34.281Z,31.87
2018-07-15T16:02:03.561Z,31.86
2018-07-15T16:04:32.467Z,31.77
2018-07-15T16:07:01.587Z,31.67
2018-07-15T16:09:30.748Z,31.60
2018-07-15T16:11:59.891Z,31.50
2018-07-15T16:14:29.147Z,31.49
2018-07-15T16:16:58.139Z,31.46
2018-07-15T16:19:27.223Z,31.42
2018-07-15T16:21:56.465Z,31.42
2018-07-15T16:24:25.366Z,31.40
2018-07-15T16:26:54.654Z,31.47
2018-07-15T16:29:23.918Z,31.53
2018-07-15T16:31:53.088Z,31.50
2018-07-15T16:34:22.271Z,31.46
2018-07-15T16:36:51.542Z,31.38
2018-07-15T16:39:20.369Z,31.29
2018-07-15T16:41:49.483Z,31.19
2018-07-15T16:44:18.732Z,31.12
2018-07-15T16:46:47.915Z,31.06
2018-07-15T16:49:17.009Z,31.00
2018-07-15T16:51:46.135Z,30.91
2018-07-15T16:54:15.403Z,30.85
2018-07-15T16:56:44.598Z,30.75
2018-07-15T16:59:13.511Z,30.64
2018-07-15T17:01:42.595Z,30.51
2018-07-15T17:04:11.594Z,30.42
2018-07-15T17:06:40.667Z,30.28
2018-07-15T17:09:09.590Z,30.12
2018-07-15T17:11:38.743Z,29.98
2018-07-15T17:14:07.745Z,29.81
2018-07-15T17:16:36.637Z,29.63
2018-07-15T17:19:05.722Z,29.45
2018-07-15T17:21:34.830Z,29.26
2018-07-15T17:24:03.718Z,29.14
2018-07-15T17:26:32.798Z,29.07
2018-07-15T17:29:02.089Z,29.01
2018-07-15T17:31:31.236Z,28.87
2018-07-15T17:34:00.235Z,28.87
2018-07-15T17:36:29.418Z,28.74
2018-07-15T17:38:58.550Z,28.54
2018-07-15T17:41:27.751Z,28.56
2018-07-15T17:43:56.644Z,28.45
2018-07-15T17:46:25.899Z,28.30
2018-07-15T17:48:54.868Z,28.18
2018-07-15T17:51:24.113Z,28.06
2018-07-15T17:53:53.195Z,27.96
2018-07-15T17:56:22.274Z,27.93
2018-07-15T17:58:51.404Z,27.89
2018-07-15T18:01:20.718Z,27.85
2018-07-15T18:03:50.037Z,27.78
2018-07-15T18:06:19.228Z,27.69
2018-07-15T18:08:48.325Z,27.63
2018-07-15T18:11:17.360Z,27.61
2018-07-15T18:13:46.346Z,27.55
2018-07-15T18:16:15.525Z,27.59
2018-07-15T18:18:44.482Z,27.55
2018-07-15T18:21:13.254Z,27.52
2018-07-15T18:23:42.076Z,27.46
2018-07-15T18:26:11.372Z,27.40
2018-07-15T18:28:40.061Z,27.35
2018-07-15T18:31:09.169Z,27.37
2018-07-15T18:33:38.177Z,27.33
2018-07-15T18:36:07.138Z,27.33
2018-07-15T18:38:36.336Z,27.32
2018-07-15T18:41:05.293Z,27.31
2018-07-15T18:43:34.575Z,27.27
2018-07-15T18:46:03.652Z,27.24
2018-07-15T18:48:32.634Z,27.20
2018-07-15T18:51:01.894Z,27.17
2018-07-15T18:53:31.213Z,27.16
2018-07-15T18:56:00.446Z,27.14
2018-07-15T18:58:29.386Z,27.16
2018-07-15T19:00:58.650Z,27.15
2018-07-15T19:03:27.770Z,27.12
2018-07-15T19:05:56.974Z,27.08
2018-07-15T19:08:26.078Z,27.05
2018-07-15T19:10:55.128Z,27.03
2018-07-15T19:13:24.298Z,27.02
2018-07-15T19:15:53.407Z,27.05
2018-07-15T19:18:22.624Z,27.05
2018-07-15T19:20:51.864Z,27.01
2018-07-15T19:23:20.880Z,26.97
2018-07-15T19:25:50.222Z,26.94
2018-07-15T19:28:19.359Z,26.94
2018-07-15T19:30:48.467Z,26.91
2018-07-15T19:33:17.542Z,26.92
2018-07-15T19:35:46.391Z,26.95
2018-07-15T19:38:15.452Z,26.93
2018-07-15T19:40:44.693Z,26.89
2018-07-15T19:43:13.858Z,26.87
2018-07-15T19:45:43.208Z,26.83
2018-07-15T19:48:12.440Z,26.79
2018-07-15T19:50:41.445Z,26.79
2018-07-15T19:53:10.372Z,26.76
2018-07-15T19:55:39.398Z,26.71
2018-07-15T19:58:08.674Z,26.69
2018-07-15T20:00:37.866Z,26.63
2018-07-15T20:03:07.015Z,26.62
2018-07-15T20:05:36.258Z,26.51
2018-07-15T20:08:05.512Z,26.49
2018-07-15T20:10:34.458Z,26.34
2018-07-15T20:13:03.534Z,26.33
2018-07-15T20:15:32.643Z,26.27
2018-07-15T20:18:01.790Z,26.26
2018-07-15T20:20:30.971Z,26.23
2018-07-15T20:23:00.343Z,26.13
2018-07-15T20:25:29.446Z,26.11
2018-07-15T20:27:58.438Z,26.14
2018-07-15T20:30:27.728Z,26.02
2018-07-15T20:32:56.754Z,25.84
2018-07-15T20:35:25.890Z,25.70
2018-07-15T20:37:55.030Z,25.59
2018-07-15T20:40:24.386Z,25.53
2018-07-15T20:42:53.124Z,25.50
2018-07-15T20:45:22.317Z,25.53
2018-07-15T20:47:51.374Z,25.48
2018-07-15T20:50:20.235Z,25.50
2018-07-15T20:52:49.359Z,25.54
2018-07-15T20:55:18.452Z,25.57
2018-07-15T20:57:47.469Z,25.62
2018-07-15T21:00:16.727Z,25.65
2018-07-15T21:02:45.873Z,25.68
2018-07-15T21:05:15.171Z,25.67
2018-07-15T21:07:44.192Z,25.68
2018-07-15T21:10:13.499Z,25.71
2018-07-15T21:12:42.727Z,25.80
2018-07-15T21:15:11.576Z,25.80
2018-07-15T21:17:40.654Z,25.75
2018-07-15T21:20:09.398Z,25.79
2018-07-15T21:22:38.387Z,25.79
2018-07-15T21:25:07.500Z,25.79
2018-07-15T21:27:36.716Z,25.78
2018-07-15T21:30:05.676Z,25.81
2018-07-15T21:32:35.059Z,25.82
2018-07-15T21:35:04.171Z,25.82
2018-07-15T21:37:33.096Z,25.86
2018-07-15T21:40:02.204Z,25.84
2018-07-15T21:42:31.127Z,25.86
2018-07-15T21:45:00.311Z,25.83
2018-07-15T21:47:29.522Z,25.87
2018-07-15T21:49:58.856Z,25.86
2018-07-15T21:52:27.766Z,25.87
2018-07-15T21:54:56.828Z,25.89
2018-07-15T21:57:25.545Z,25.88
2018-07-15T21:59:54.603Z,25.89
2018-07-15T22:02:23.644Z,25.91
2018-07-15T22:04:53.091Z,25.92
2018-07-15T22:07:32.829Z,25.95
2018-07-15T22:10:13.903Z,25.92
2018-07-15T22:12:43.152Z,25.99
2018-07-15T22:15:12.386Z,25.99
2018-07-15T22:17:41.346Z,25.94
2018-07-15T22:20:10.427Z,25.87
2018-07-15T22:22:39.674Z,25.76
2018-07-15T22:25:08.831Z,25.79
2018-07-15T22:27:38.181Z,25.76
2018-07-15T22:30:06.979Z,25.70
2018-07-15T22:32:36.093Z,25.64
2018-07-15T22:35:05.342Z,25.61
2018-07-15T22:37:34.505Z,25.58
2018-07-15T22:40:03.846Z,25.57
2018-07-15T22:42:32.885Z,25.49
2018-07-15T22:45:02.039Z,25.47
2018-07-15T22:47:30.970Z,25.42
2018-07-15T22:49:59.817Z,25.42
2018-07-15T22:52:29.202Z,25.27
2018-07-15T22:54:58.359Z,25.34
2018-07-15T22:57:27.143Z,25.28
2018-07-15T22:59:56.351Z,25.24
2018-07-15T23:02:25.425Z,25.29
2018-07-15T23:06:02.934Z,25.42
2018-07-15T23:08:33.043Z,25.32
2018-07-15T23:11:02.073Z,25.31
2018-07-15T23:13:31.203Z,25.39
2018-07-15T23:16:00.306Z,25.43
2018-07-15T23:18:29.226Z,25.39
2018-07-15T23:20:58.479Z,25.47
2018-07-15T23:23:27.351Z,25.50
2018-07-15T23:25:56.434Z,25.56
2018-07-15T23:28:25.686Z,25.56
2018-07-15T23:30:54.692Z,25.49
2018-07-15T23:33:23.640Z,25.42
2018-07-15T23:35:52.499Z,25.37
2018-07-15T23:38:21.515Z,25.29
2018-07-15T23:40:50.502Z,25.27
2018-07-15T23:43:19.803Z,25.28
2018-07-15T23:45:48.824Z,25.24
2018-07-15T23:48:17.859Z,25.28
2018-07-15T23:50:47.084Z,25.29
2018-07-15T23:53:15.956Z,25.29
2018-07-15T23:55:45.081Z,25.28
2018-07-15T23:58:13.902Z,25.30
